Innsbruck Airport LOWI

Flugplatz Daten

Name: Innsbruck Airport

Ident: LOWI

Lat: 47,2602005

Long: 11,34399986

Platzhöhe: 1906 ft

IataCode: INN

City: Innsbruck

Metar

2021/08/02 07:50
LOWI 020750Z VRB01KT 9999 FEW010 BKN080 15/12 Q1017 NOSIG

Taf

2021/08/02 06:21
TAF LOWI 020515Z 0206/0306 27004KT 9999 SCT025 BKN070 TX21/0214Z TN12/0304Z
TEMPO 0212/0220 08008KT -SHRA PROB30
TEMPO 0212/0216 SHRA SCT060 FEW060CB

Webcams

Gewünschte Webcam nicht vorhanden? Dann fügen Sie eine hinzu. Sie wird dann so schnell wie möglich freigeschaltet
Url: Title: